createdAt,value
2022-10-17T00:00:17.171Z,14.60
2022-10-17T00:05:25.493Z,14.54
2022-10-17T00:10:33.285Z,14.48
2022-10-17T00:15:45.086Z,14.42
2022-10-17T00:20:52.840Z,14.37
2022-10-17T00:26:07.198Z,14.31
2022-10-17T00:31:14.676Z,14.23
2022-10-17T00:36:24.138Z,14.16
2022-10-17T00:41:35.521Z,14.08
2022-10-17T00:46:45.776Z,13.98
2022-10-17T00:51:56.055Z,13.89
2022-10-17T00:57:04.040Z,13.78
2022-10-17T01:02:14.994Z,13.68
2022-10-17T01:07:22.406Z,13.59
2022-10-17T01:12:38.820Z,13.48
2022-10-17T01:18:00.917Z,13.38
2022-10-17T01:23:29.800Z,13.26
2022-10-17T01:29:07.680Z,13.13
2022-10-17T01:34:21.022Z,12.98
2022-10-17T01:39:40.067Z,12.84
2022-10-17T01:44:57.522Z,12.70
2022-10-17T01:50:09.604Z,12.55
2022-10-17T01:55:22.161Z,12.41
2022-10-17T02:00:32.692Z,12.27
2022-10-17T02:05:42.846Z,12.14
2022-10-17T02:10:56.643Z,12.02
2022-10-17T02:16:22.912Z,11.91
2022-10-17T02:21:37.051Z,11.81
2022-10-17T02:26:52.657Z,11.70
2022-10-17T02:32:06.375Z,11.62
2022-10-17T02:37:17.080Z,11.52
2022-10-17T02:42:26.640Z,11.44
2022-10-17T02:47:38.797Z,11.35
2022-10-17T02:52:53.569Z,11.27
2022-10-17T02:58:06.808Z,11.20
2022-10-17T03:03:26.572Z,11.13
2022-10-17T03:08:34.347Z,11.08
2022-10-17T03:13:42.038Z,11.02
2022-10-17T03:18:50.394Z,10.96
2022-10-17T03:23:58.285Z,10.90
2022-10-17T03:29:05.996Z,10.85
2022-10-17T03:34:14.214Z,10.79
2022-10-17T03:39:21.600Z,10.73
2022-10-17T03:44:29.012Z,10.67
2022-10-17T03:49:36.756Z,10.61
2022-10-17T03:54:45.210Z,10.54
2022-10-17T03:59:53.787Z,10.49
2022-10-17T04:05:02.051Z,10.43
2022-10-17T04:10:11.686Z,10.37
2022-10-17T04:15:20.137Z,10.31
2022-10-17T04:20:28.170Z,10.25
2022-10-17T04:25:38.109Z,10.19
2022-10-17T04:30:45.782Z,10.13
2022-10-17T04:36:01.341Z,10.07
2022-10-17T04:41:13.314Z,10.01
2022-10-17T04:46:20.651Z,9.95
2022-10-17T04:51:29.040Z,9.89
2022-10-17T04:56:52.127Z,9.83
2022-10-17T05:02:01.525Z,9.77
2022-10-17T05:07:11.245Z,9.71
2022-10-17T05:12:35.496Z,9.66
2022-10-17T05:17:43.746Z,9.60
2022-10-17T05:22:52.199Z,9.55
2022-10-17T05:28:02.461Z,9.50
2022-10-17T05:33:10.751Z,9.45
2022-10-17T05:38:19.375Z,9.41
2022-10-17T05:43:28.300Z,9.36
2022-10-17T05:48:36.572Z,9.33
2022-10-17T05:53:45.340Z,9.30
2022-10-17T05:59:01.026Z,9.28
2022-10-17T06:04:29.895Z,9.26
2022-10-17T06:09:38.208Z,9.27
2022-10-17T06:14:46.867Z,9.29
2022-10-17T06:19:55.690Z,9.34
2022-10-17T06:25:04.270Z,9.41
2022-10-17T06:30:13.867Z,9.47
2022-10-17T06:35:22.230Z,9.57
2022-10-17T06:40:30.641Z,9.68
2022-10-17T06:45:40.167Z,9.82
2022-10-17T06:51:10.472Z,9.97
2022-10-17T06:56:28.399Z,10.14
2022-10-17T07:02:08.968Z,10.33
2022-10-17T07:07:17.990Z,10.51
2022-10-17T07:12:26.586Z,10.69
2022-10-17T07:17:34.982Z,10.90
2022-10-17T07:22:43.031Z,11.12
2022-10-17T07:27:52.081Z,11.36
2022-10-17T07:33:01.941Z,11.62
2022-10-17T07:38:10.058Z,11.87
2022-10-17T07:43:18.464Z,12.10
2022-10-17T07:48:26.906Z,12.32
2022-10-17T07:53:36.438Z,12.52
2022-10-17T07:58:44.421Z,12.72
2022-10-17T08:03:52.759Z,12.92
2022-10-17T08:09:02.116Z,13.11
2022-10-17T08:14:10.348Z,13.28
2022-10-17T08:19:17.387Z,13.46
2022-10-17T08:24:25.638Z,13.65
2022-10-17T08:29:34.541Z,13.84
2022-10-17T08:34:42.988Z,14.06
2022-10-17T08:39:50.272Z,14.28
2022-10-17T08:45:08.489Z,14.52
2022-10-17T08:50:23.766Z,14.76
2022-10-17T08:55:41.448Z,14.99
2022-10-17T09:00:59.917Z,15.24
2022-10-17T09:06:20.934Z,15.51
2022-10-17T09:11:47.099Z,15.76
2022-10-17T09:17:05.740Z,15.99
2022-10-17T09:22:18.838Z,16.20
2022-10-17T09:27:34.059Z,16.40
2022-10-17T09:32:43.424Z,16.61
2022-10-17T09:37:52.586Z,16.79
2022-10-17T09:43:01.595Z,16.97
2022-10-17T09:48:19.916Z,17.14
2022-10-17T09:53:32.633Z,17.31
2022-10-17T09:58:48.255Z,17.47
2022-10-17T10:04:13.588Z,17.61
2022-10-17T10:09:27.323Z,17.78
2022-10-17T10:14:37.350Z,17.94
2022-10-17T10:19:53.986Z,18.08
2022-10-17T10:25:17.947Z,18.22
2022-10-17T10:30:36.157Z,18.34
2022-10-17T10:35:58.309Z,18.43
2022-10-17T10:41:09.680Z,18.55
2022-10-17T10:46:23.866Z,18.67
2022-10-17T10:51:38.043Z,18.80
2022-10-17T10:56:51.117Z,18.91
2022-10-17T11:02:05.482Z,19.01
2022-10-17T11:07:15.686Z,19.10
2022-10-17T11:12:26.855Z,19.17
2022-10-17T11:17:42.729Z,19.24
2022-10-17T11:22:54.249Z,19.31
2022-10-17T11:28:04.852Z,19.37
2022-10-17T11:33:18.471Z,19.42
2022-10-17T11:38:38.087Z,19.47
2022-10-17T11:43:53.539Z,19.52
2022-10-17T11:49:19.851Z,19.57
2022-10-17T11:54:36.301Z,19.65
2022-10-17T12:00:04.884Z,19.74
2022-10-17T12:05:24.124Z,19.82
2022-10-17T12:10:41.836Z,19.89
2022-10-17T12:15:49.754Z,19.97
2022-10-17T12:21:02.337Z,20.03
2022-10-17T12:26:11.880Z,20.09
2022-10-17T12:31:33.644Z,20.15
2022-10-17T12:36:43.818Z,20.20
2022-10-17T12:42:00.397Z,20.25
2022-10-17T12:47:40.791Z,20.30
2022-10-17T12:53:08.048Z,20.38
2022-10-17T12:58:18.201Z,20.44
2022-10-17T13:03:29.610Z,20.50
2022-10-17T13:08:40.897Z,20.57
2022-10-17T13:13:50.313Z,20.62
2022-10-17T13:18:58.978Z,20.64
2022-10-17T13:24:24.567Z,20.64
2022-10-17T13:29:33.344Z,20.62
2022-10-17T13:34:41.815Z,20.59
2022-10-17T13:40:00.428Z,20.57
2022-10-17T13:45:22.241Z,20.55
2022-10-17T13:50:45.787Z,20.53
2022-10-17T13:56:22.939Z,20.51
2022-10-17T14:01:30.311Z,20.51
2022-10-17T14:06:44.981Z,20.49
2022-10-17T14:12:05.228Z,20.48
2022-10-17T14:17:23.706Z,20.46
2022-10-17T14:22:36.657Z,20.44
2022-10-17T14:28:03.002Z,20.42
2022-10-17T14:33:15.750Z,20.40
2022-10-17T14:38:24.604Z,20.38
2022-10-17T14:43:34.442Z,20.35
2022-10-17T14:48:43.702Z,20.32
2022-10-17T14:54:05.706Z,20.28
2022-10-17T14:59:30.171Z,20.25
2022-10-17T15:04:46.418Z,20.21
2022-10-17T15:09:55.359Z,20.17
2022-10-17T15:15:02.936Z,20.13
2022-10-17T15:20:17.767Z,20.07
2022-10-17T15:25:25.883Z,20.01
2022-10-17T15:30:38.269Z,19.95
2022-10-17T15:35:46.235Z,19.88
2022-10-17T15:40:54.313Z,19.80
2022-10-17T15:46:04.307Z,19.72
2022-10-17T15:51:12.607Z,19.64
2022-10-17T15:56:24.980Z,19.55
2022-10-17T16:01:35.321Z,19.47
2022-10-17T16:06:44.665Z,19.37
2022-10-17T16:11:52.719Z,19.29
2022-10-17T16:17:00.721Z,19.20
2022-10-17T16:22:13.316Z,19.13
2022-10-17T16:27:22.541Z,19.05
2022-10-17T16:32:30.687Z,18.98
2022-10-17T16:37:38.897Z,18.91
2022-10-17T16:42:47.470Z,18.83
2022-10-17T16:47:56.222Z,18.76
2022-10-17T16:53:04.680Z,18.70
2022-10-17T16:58:12.804Z,18.63
2022-10-17T17:03:20.890Z,18.58
2022-10-17T17:08:29.751Z,18.53
2022-10-17T17:13:37.941Z,18.49
2022-10-17T17:18:47.173Z,18.45
2022-10-17T17:23:54.392Z,18.41
2022-10-17T17:29:03.262Z,18.38
2022-10-17T17:34:14.286Z,18.34
2022-10-17T17:39:25.403Z,18.32
2022-10-17T17:44:33.606Z,18.29
2022-10-17T17:49:41.414Z,18.27
2022-10-17T17:54:50.874Z,18.23
2022-10-17T17:59:59.213Z,18.22
2022-10-17T18:05:08.812Z,18.19
2022-10-17T18:10:17.280Z,18.16
2022-10-17T18:15:25.369Z,18.13
2022-10-17T18:20:34.343Z,18.11
2022-10-17T18:25:42.578Z,18.08
2022-10-17T18:30:50.825Z,18.06
2022-10-17T18:35:59.855Z,18.03
2022-10-17T18:41:12.238Z,18.01
2022-10-17T18:46:21.885Z,17.99
2022-10-17T18:51:30.173Z,17.96
2022-10-17T18:56:38.305Z,17.93
2022-10-17T19:01:46.946Z,17.89
2022-10-17T19:06:54.950Z,17.86
2022-10-17T19:12:03.286Z,17.83
2022-10-17T19:17:11.769Z,17.80
2022-10-17T19:22:19.885Z,17.78
2022-10-17T19:27:28.495Z,17.76
2022-10-17T19:32:37.080Z,17.72
2022-10-17T19:37:44.645Z,17.69
2022-10-17T19:42:52.778Z,17.67
2022-10-17T19:48:00.583Z,17.63
2022-10-17T19:53:08.463Z,17.60
2022-10-17T19:58:16.859Z,17.58
2022-10-17T20:03:25.592Z,17.55
2022-10-17T20:08:32.628Z,17.53
2022-10-17T20:13:41.139Z,17.52
2022-10-17T20:18:49.180Z,17.51
2022-10-17T20:23:57.680Z,17.51
2022-10-17T20:29:09.015Z,17.51
2022-10-17T20:34:18.957Z,17.51
2022-10-17T20:39:27.002Z,17.51
2022-10-17T20:44:35.278Z,17.51
2022-10-17T20:49:43.302Z,17.50
2022-10-17T20:54:52.169Z,17.49
2022-10-17T20:59:59.456Z,17.49
2022-10-17T21:05:08.216Z,17.48
2022-10-17T21:10:35.423Z,17.46
2022-10-17T21:15:44.744Z,17.44
2022-10-17T21:20:53.085Z,17.42
2022-10-17T21:26:07.415Z,17.39
2022-10-17T21:31:18.111Z,17.35
2022-10-17T21:36:27.065Z,17.31
2022-10-17T21:41:35.572Z,17.27
2022-10-17T21:46:43.924Z,17.23
2022-10-17T21:51:52.797Z,17.18
2022-10-17T21:57:00.717Z,17.14
2022-10-17T22:02:08.926Z,17.10
2022-10-17T22:07:17.194Z,17.06
2022-10-17T22:12:25.106Z,17.01
2022-10-17T22:17:32.966Z,16.97
2022-10-17T22:22:41.072Z,16.93
2022-10-17T22:27:49.041Z,16.90
2022-10-17T22:32:56.914Z,16.86
2022-10-17T22:38:04.802Z,16.83
2022-10-17T22:43:12.772Z,16.80
2022-10-17T22:48:20.631Z,16.75
2022-10-17T22:53:30.150Z,16.72
2022-10-17T22:58:38.730Z,16.68
2022-10-17T23:03:47.483Z,16.63
2022-10-17T23:08:55.906Z,16.59
2022-10-17T23:14:04.590Z,16.56
2022-10-17T23:19:12.167Z,16.52
2022-10-17T23:24:20.180Z,16.48
2022-10-17T23:29:33.081Z,16.44
2022-10-17T23:34:40.932Z,16.41
2022-10-17T23:39:48.748Z,16.38
2022-10-17T23:44:56.665Z,16.36
2022-10-17T23:50:04.699Z,16.33
2022-10-17T23:55:14.070Z,16.29
